Time;durP1;ratioP1;P1;durP2;ratioP2;P2;SDS_P1;SDS_P2;PMS_P1;PMS_P2;Temp;Humidity;BMP_temperature;BMP_pressure;BME280_temperature;BME280_humidity;BME280_pressure;Samples;Min_cycle;Max_cycle;Signal;HPM_P1;HPM_P2
2022/04/28 00:00:57;;;;;;;12.55;6.25;;;;;;;-143.53;100.00;58366.03;2086155;28;20226;-69
2022/04/28 00:01:58;;;;;;;10.32;6.35;;;;;;;-143.53;100.00;58366.03;2097972;28;20215;-69
2022/04/28 00:03:01;;;;;;;9.20;5.50;;;;;;;-143.53;100.00;58366.03;2095427;28;20199;-69
2022/04/28 00:04:02;;;;;;;8.18;6.28;;;;;;;-143.53;100.00;58366.03;2093368;28;20193;-69
2022/04/28 00:05:05;;;;;;;7.20;5.93;;;;;;;-143.53;100.00;58366.03;2090761;28;20207;-69
2022/04/28 00:06:07;;;;;;;7.28;5.47;;;;;;;-143.53;100.00;58366.03;2080811;28;20215;-69
2022/04/28 00:07:08;;;;;;;9.55;6.95;;;;;;;-143.53;100.00;58366.03;2090925;28;20196;-69
2022/04/28 00:08:10;;;;;;;8.68;6.65;;;;;;;-143.53;100.00;58366.03;2094303;28;20200;-69
2022/04/28 00:09:11;;;;;;;11.10;7.82;;;;;;;-143.53;100.00;58366.03;2091356;28;20195;-69
2022/04/28 00:10:13;;;;;;;6.65;5.65;;;;;;;-143.53;100.00;58366.03;2091828;28;20207;-69
2022/04/28 00:11:15;;;;;;;9.25;6.32;;;;;;;-143.53;100.00;58366.03;2089005;28;20224;-69
2022/04/28 00:12:17;;;;;;;8.02;5.57;;;;;;;-143.53;100.00;58366.03;2100760;28;20648;-69
2022/04/28 00:13:18;;;;;;;11.20;6.53;;;;;;;-143.53;100.00;58366.03;2094244;28;20203;-69
2022/04/28 00:14:20;;;;;;;8.90;6.55;;;;;;;-143.53;100.00;58366.03;2088369;28;20218;-69
2022/04/28 00:15:22;;;;;;;11.57;6.18;;;;;;;-143.53;100.00;58366.03;2092722;28;20579;-69
2022/04/28 00:16:23;;;;;;;8.20;6.22;;;;;;;-143.53;100.00;58366.03;2090761;28;20223;-69
2022/04/28 00:17:25;;;;;;;7.93;5.60;;;;;;;-143.53;100.00;58366.03;2092111;28;20292;-68
2022/04/28 00:18:27;;;;;;;9.98;6.22;;;;;;;-143.53;100.00;58366.03;2092326;28;20215;-69
2022/04/28 00:19:28;;;;;;;9.52;6.57;;;;;;;-143.53;100.00;58366.03;2094217;28;20196;-69
2022/04/28 00:20:30;;;;;;;11.77;6.40;;;;;;;-143.53;100.00;58366.03;2084759;28;20535;-68
2022/04/28 00:21:31;;;;;;;26.60;7.05;;;;;;;-143.53;100.00;58366.03;2091240;28;20204;-69
2022/04/28 00:22:34;;;;;;;15.63;6.30;;;;;;;-143.53;100.00;58366.03;2091628;28;20227;-69
2022/04/28 00:23:35;;;;;;;8.73;6.15;;;;;;;-143.53;100.00;58366.03;2093180;28;20196;-69
2022/04/28 00:24:37;;;;;;;8.02;5.43;;;;;;;-143.53;100.00;58366.03;2094825;28;20200;-69
2022/04/28 00:25:39;;;;;;;7.82;5.53;;;;;;;-143.53;100.00;58366.03;2082495;28;20417;-69
2022/04/28 00:26:40;;;;;;;9.48;5.80;;;;;;;-143.53;100.00;58366.03;2099367;28;20200;-69
2022/04/28 00:27:42;;;;;;;9.02;6.00;;;;;;;-143.53;100.00;58366.03;2098158;28;20710;-69
2022/04/28 00:28:43;;;;;;;8.85;6.47;;;;;;;-143.53;100.00;58366.03;2093834;28;20201;-69
2022/04/28 00:29:45;;;;;;;8.45;5.88;;;;;;;-143.53;100.00;58366.03;2091791;28;20196;-69
2022/04/28 00:30:47;;;;;;;9.77;6.43;;;;;;;-143.53;100.00;58366.03;2087180;28;20721;-69
2022/04/28 00:31:48;;;;;;;8.40;6.03;;;;;;;-143.53;100.00;58366.03;2101733;28;20729;-69
2022/04/28 00:32:50;;;;;;;13.30;7.47;;;;;;;-143.53;100.00;58366.03;2099997;28;20593;-69
2022/04/28 00:33:52;;;;;;;9.90;6.30;;;;;;;-143.53;100.00;58366.03;2095811;28;20207;-69
2022/04/28 00:34:53;;;;;;;11.43;7.65;;;;;;;-143.53;100.00;58366.03;2094800;28;20200;-69
2022/04/28 00:35:55;;;;;;;8.25;6.07;;;;;;;-143.53;100.00;58366.03;2086924;28;20212;-69
2022/04/28 00:36:57;;;;;;;17.30;7.47;;;;;;;-143.53;100.00;58366.03;2100794;28;20258;-69
2022/04/28 00:37:58;;;;;;;11.20;6.45;;;;;;;-143.53;100.00;58366.03;2092610;28;20196;-69
2022/04/28 00:39:00;;;;;;;10.98;6.07;;;;;;;-143.53;100.00;58366.03;2092596;28;20213;-69
2022/04/28 00:40:01;;;;;;;12.55;6.70;;;;;;;-143.53;100.00;58366.03;2093297;28;20545;-69
2022/04/28 00:41:03;;;;;;;8.50;6.78;;;;;;;-143.53;100.00;58366.03;2089000;28;20237;-69
2022/04/28 00:42:12;;;;;;;15.13;7.57;;;;;;;-143.53;100.00;58366.03;2102034;28;20896;-69
2022/04/28 00:43:19;;;;;;;11.20;6.50;;;;;;;-143.53;100.00;58366.03;2095316;28;20203;-69
2022/04/28 00:44:21;;;;;;;9.82;6.05;;;;;;;-143.53;100.00;58366.03;2094031;28;20263;-69
2022/04/28 00:45:22;;;;;;;11.10;7.20;;;;;;;-143.53;100.00;58366.03;2095101;28;20200;-69
2022/04/28 00:46:24;;;;;;;12.32;7.20;;;;;;;-143.53;100.00;58366.03;2093544;28;20803;-69
2022/04/28 00:51:32;;;;;;;9.20;5.60;;;;;;;-143.53;100.00;58366.03;2090606;28;20230;-69
2022/04/28 00:52:34;;;;;;;12.93;7.53;;;;;;;-143.53;100.00;58366.03;2094660;28;20192;-69
2022/04/28 00:53:43;;;;;;;9.73;6.80;;;;;;;-143.53;100.00;58366.03;2094235;28;20599;-69
2022/04/28 00:54:46;;;;;;;9.90;7.25;;;;;;;-143.53;100.00;58366.03;2092175;28;20556;-69
2022/04/28 00:55:47;;;;;;;9.43;6.03;;;;;;;-143.53;100.00;58366.03;2084305;28;20714;-68
2022/04/28 00:56:49;;;;;;;12.27;7.10;;;;;;;-143.53;100.00;58366.03;2103624;28;20198;-69
2022/04/28 00:57:52;;;;;;;11.70;7.30;;;;;;;-143.53;100.00;58366.03;2099162;28;20200;-69
2022/04/28 00:58:56;;;;;;;9.75;6.95;;;;;;;-143.53;100.00;58366.03;2094019;28;20203;-69
2022/04/28 00:59:57;;;;;;;11.63;7.68;;;;;;;-143.53;100.00;58366.03;2092518;28;20207;-69
2022/04/28 01:00:59;;;;;;;8.57;6.70;;;;;;;-143.53;100.00;58366.03;2086338;28;20230;-68
2022/04/28 01:02:01;;;;;;;10.15;6.90;;;;;;;-143.53;100.00;58366.03;2100579;28;20226;-69
2022/04/28 01:03:03;;;;;;;10.70;7.95;;;;;;;-143.53;100.00;58366.03;2093841;28;20218;-69
2022/04/28 01:04:05;;;;;;;11.55;7.68;;;;;;;-143.53;100.00;58366.03;2091966;28;20753;-69
2022/04/28 01:05:07;;;;;;;16.85;9.18;;;;;;;-143.53;100.00;58366.03;2090540;28;20195;-69
2022/04/28 01:06:08;;;;;;;10.20;7.65;;;;;;;-143.53;100.00;58366.03;2088149;28;20247;-69
2022/04/28 01:07:10;;;;;;;11.68;8.30;;;;;;;-143.53;100.00;58366.03;2090225;28;20200;-69
2022/04/28 01:08:12;;;;;;;10.60;7.60;;;;;;;-143.53;100.00;58366.03;2091082;28;20229;-69
2022/04/28 01:09:14;;;;;;;11.18;7.97;;;;;;;-143.53;100.00;58366.03;2091783;28;20199;-69
2022/04/28 01:10:16;;;;;;;9.75;7.53;;;;;;;-143.53;100.00;58366.03;2092543;28;20230;-69
2022/04/28 01:11:19;;;;;;;12.77;7.93;;;;;;;-143.53;100.00;58366.03;2090993;28;20646;-69
2022/04/28 01:12:21;;;;;;;22.40;7.70;;;;;;;-143.53;100.00;58366.03;2099247;28;20214;-69
2022/04/28 01:13:25;;;;;;;11.18;7.78;;;;;;;-143.53;100.00;58366.03;2091053;28;20847;-69
2022/04/28 01:14:27;;;;;;;13.70;8.10;;;;;;;-143.53;100.00;58366.03;2089472;28;20702;-68
2022/04/28 01:15:28;;;;;;;10.88;7.18;;;;;;;-143.53;100.00;58366.03;2088397;28;20735;-68
2022/04/28 01:16:30;;;;;;;9.52;6.85;;;;;;;-143.53;100.00;58366.03;2101290;28;20202;-68
2022/04/28 01:17:31;;;;;;;9.25;6.80;;;;;;;-143.53;100.00;58366.03;2099589;28;20221;-69
2022/04/28 01:18:33;;;;;;;10.05;7.10;;;;;;;-143.53;100.00;58366.03;2091059;28;20553;-68
2022/04/28 01:19:35;;;;;;;14.95;7.70;;;;;;;-143.53;100.00;58366.03;2093904;28;20225;-68
2022/04/28 01:20:36;;;;;;;12.80;7.88;;;;;;;-143.53;100.00;58366.03;2083154;28;20677;-68
2022/04/28 01:21:38;;;;;;;12.48;7.85;;;;;;;-143.53;100.00;58366.03;2103549;28;20206;-68
2022/04/28 01:22:46;;;;;;;11.52;8.20;;;;;;;-143.53;100.00;58366.03;2098744;28;20208;-68
2022/04/28 01:23:47;;;;;;;12.30;6.75;;;;;;;-143.53;100.00;58366.03;2093008;28;20200;-68
2022/04/28 01:24:49;;;;;;;8.88;6.75;;;;;;;-143.53;100.00;58366.03;2092483;28;20201;-69
2022/04/28 01:25:50;;;;;;;12.68;7.57;;;;;;;-143.53;100.00;58366.03;2085589;28;20230;-68
2022/04/28 01:26:54;;;;;;;10.32;6.85;;;;;;;-143.53;100.00;58366.03;2100310;28;20202;-68
2022/04/28 01:27:56;;;;;;;8.25;6.40;;;;;;;-143.53;100.00;58366.03;2096902;28;20205;-69
2022/04/28 01:28:58;;;;;;;8.48;6.53;;;;;;;-143.53;100.00;58366.03;2091817;28;20552;-69
2022/04/28 01:29:59;;;;;;;10.30;6.97;;;;;;;-143.53;100.00;58366.03;2094217;28;20665;-68
2022/04/28 01:31:05;;;;;;;8.75;6.40;;;;;;;-143.53;100.00;58366.03;2085796;28;20219;-69
2022/04/28 01:32:07;;;;;;;14.63;6.90;;;;;;;-143.53;100.00;58366.03;2100870;28;20216;-69
2022/04/28 01:33:09;;;;;;;10.70;7.20;;;;;;;-143.53;100.00;58366.03;2094791;28;20196;-69
2022/04/28 01:34:10;;;;;;;10.95;6.93;;;;;;;-143.53;100.00;58366.03;2091661;28;20201;-69
2022/04/28 01:35:11;;;;;;;11.10;6.90;;;;;;;-143.53;100.00;58366.03;2090252;28;20193;-68
2022/04/28 01:36:13;;;;;;;10.73;6.88;;;;;;;-143.53;100.00;58366.03;2092544;28;20235;-69
2022/04/28 01:37:14;;;;;;;10.13;6.47;;;;;;;-143.53;100.00;58366.03;2093801;28;20200;-69
2022/04/28 01:38:16;;;;;;;12.10;6.65;;;;;;;-143.53;100.00;58366.03;2094225;28;20204;-69
2022/04/28 01:39:17;;;;;;;13.75;7.30;;;;;;;-143.53;100.00;58366.03;2093977;28;20200;-69
2022/04/28 01:40:20;;;;;;;10.93;7.10;;;;;;;-143.53;100.00;58366.03;2094298;28;20203;-69
2022/04/28 01:41:21;;;;;;;14.50;7.25;;;;;;;-143.53;100.00;58366.03;2089370;28;20223;-69
2022/04/28 01:42:24;;;;;;;9.88;7.03;;;;;;;-143.53;100.00;58366.03;2101561;28;20196;-69
2022/04/28 01:43:25;;;;;;;10.82;6.95;;;;;;;-143.53;100.00;58366.03;2092515;28;20196;-69
2022/04/28 01:44:27;;;;;;;12.45;8.63;;;;;;;-143.53;100.00;58366.03;2092697;28;20224;-69
2022/04/28 01:45:29;;;;;;;11.07;7.32;;;;;;;-143.53;100.00;58366.03;2089268;28;20199;-68
2022/04/28 01:46:31;;;;;;;12.32;7.85;;;;;;;-143.53;100.00;58366.03;2096237;28;20238;-69
2022/04/28 01:47:33;;;;;;;12.30;7.57;;;;;;;-143.53;100.00;58366.03;2094778;28;20199;-69
2022/04/28 01:48:35;;;;;;;13.98;8.98;;;;;;;-143.53;100.00;58366.03;2094507;28;20196;-69
2022/04/28 01:49:37;;;;;;;11.30;7.97;;;;;;;-143.53;100.00;58366.03;2094655;28;20199;-69
2022/04/28 01:50:38;;;;;;;13.45;8.05;;;;;;;-143.53;100.00;58366.03;2082822;28;20562;-69
2022/04/28 01:55:41;;;;;;;17.38;7.50;;;;;;;-143.53;100.00;58366.03;2084804;28;20200;-69
2022/04/28 01:56:42;;;;;;;12.25;8.40;;;;;;;-143.53;100.00;58366.03;2103643;28;20206;-69
2022/04/28 01:57:44;;;;;;;11.48;7.53;;;;;;;-143.53;100.00;58366.03;2091951;28;20211;-69
2022/04/28 01:58:45;;;;;;;12.90;8.70;;;;;;;-143.53;100.00;58366.03;2091650;28;20196;-69
2022/04/28 01:59:47;;;;;;;12.60;8.30;;;;;;;-143.53;100.00;58366.03;2090263;28;20203;-69
2022/04/28 02:00:48;;;;;;;14.50;8.30;;;;;;;-143.53;100.00;58366.03;2085825;28;20238;-68
2022/04/28 02:01:50;;;;;;;13.43;8.38;;;;;;;-143.53;100.00;58366.03;2094430;28;20209;-69
2022/04/28 02:02:52;;;;;;;13.45;8.90;;;;;;;-143.53;100.00;58366.03;2092653;28;20204;-69
2022/04/28 02:03:54;;;;;;;17.30;8.45;;;;;;;-143.53;100.00;58366.03;2094943;28;20192;-69
2022/04/28 02:04:59;;;;;;;12.27;9.07;;;;;;;-143.53;100.00;58366.03;2095440;28;20203;-69
2022/04/28 02:06:01;;;;;;;13.48;8.93;;;;;;;-143.53;100.00;58366.03;2083925;28;20239;-68
2022/04/28 02:07:02;;;;;;;10.27;7.47;;;;;;;-143.53;100.00;58366.03;2098296;28;20761;-68
2022/04/28 02:08:04;;;;;;;12.98;7.53;;;;;;;-143.53;100.00;58366.03;2094018;28;20246;-69
2022/04/28 02:09:06;;;;;;;11.70;8.45;;;;;;;-143.53;100.00;58366.03;2092789;28;20200;-68
2022/04/28 02:10:08;;;;;;;20.10;8.23;;;;;;;-143.53;100.00;58366.03;2090561;28;20240;-68
2022/04/28 02:11:10;;;;;;;10.90;8.10;;;;;;;-143.53;100.00;58366.03;2085563;28;20227;-68
2022/04/28 02:12:13;;;;;;;10.63;7.63;;;;;;;-143.53;100.00;58366.03;2100121;28;20196;-68
2022/04/28 02:13:14;;;;;;;10.80;8.52;;;;;;;-143.53;100.00;58366.03;2086461;28;20204;-68
2022/04/28 02:14:16;;;;;;;11.68;8.43;;;;;;;-143.53;100.00;58366.03;2088221;28;20204;-68
2022/04/28 02:15:17;;;;;;;14.50;8.63;;;;;;;-143.53;100.00;58366.03;2090255;28;20237;-68
2022/04/28 02:16:19;;;;;;;12.90;8.63;;;;;;;-143.53;100.00;58366.03;2081113;28;20220;-68
2022/04/28 02:17:23;;;;;;;13.82;8.25;;;;;;;-143.53;100.00;58366.03;2091900;28;20196;-68
2022/04/28 02:18:25;;;;;;;12.50;8.38;;;;;;;-143.53;100.00;58366.03;2090777;28;20847;-69
2022/04/28 02:19:27;;;;;;;21.55;9.88;;;;;;;-143.53;100.00;58366.03;2092965;28;20196;-68
2022/04/28 02:20:29;;;;;;;15.27;8.82;;;;;;;-143.53;100.00;58366.03;2087042;28;20200;-68
2022/04/28 02:21:30;;;;;;;13.65;9.02;;;;;;;-143.53;100.00;58366.03;2091995;28;20211;-68
2022/04/28 02:22:33;;;;;;;15.10;7.72;;;;;;;-143.53;100.00;58366.03;2099486;28;20236;-69
2022/04/28 02:23:34;;;;;;;13.52;8.02;;;;;;;-143.53;100.00;58366.03;2091967;28;20568;-69
2022/04/28 02:24:35;;;;;;;10.95;7.63;;;;;;;-143.53;100.00;58366.03;2092606;28;20686;-69
2022/04/28 02:25:38;;;;;;;13.48;8.63;;;;;;;-143.53;100.00;58366.03;2082849;28;20211;-68
2022/04/28 02:26:39;;;;;;;11.30;7.72;;;;;;;-143.53;100.00;58366.03;2101450;28;20194;-69
2022/04/28 02:27:41;;;;;;;11.82;8.20;;;;;;;-143.53;100.00;58366.03;2100426;28;20199;-69
2022/04/28 02:28:42;;;;;;;13.90;8.75;;;;;;;-143.53;100.00;58366.03;2092447;28;20203;-69
2022/04/28 02:29:44;;;;;;;13.40;8.90;;;;;;;-143.53;100.00;58366.03;2090002;28;20195;-68
2022/04/28 02:30:46;;;;;;;12.15;8.05;;;;;;;-143.53;100.00;58366.03;2082226;28;20195;-69
2022/04/28 02:31:47;;;;;;;17.52;8.82;;;;;;;-143.53;100.00;58366.03;2100288;28;20200;-69
2022/04/28 02:34:09;;;;;;;15.95;8.80;;;;;;;-143.53;100.00;58366.03;2091080;28;20207;-69
2022/04/28 02:35:11;;;;;;;11.15;7.80;;;;;;;-143.53;100.00;58366.03;2092105;28;20199;-69
2022/04/28 02:36:13;;;;;;;12.80;8.55;;;;;;;-143.53;100.00;58366.03;2089445;28;20226;-69
2022/04/28 02:37:14;;;;;;;13.00;7.93;;;;;;;-143.53;100.00;58366.03;2091635;28;20196;-69
2022/04/28 02:38:16;;;;;;;11.77;8.48;;;;;;;-143.53;100.00;58366.03;2091043;28;20221;-69
2022/04/28 02:39:18;;;;;;;12.80;8.82;;;;;;;-143.53;100.00;58366.03;2091547;28;20648;-69
2022/04/28 02:40:20;;;;;;;16.90;9.60;;;;;;;-143.53;100.00;58366.03;2091647;28;20235;-69
2022/04/28 02:41:21;;;;;;;13.00;8.43;;;;;;;-143.53;100.00;58366.03;2086475;28;20222;-69
2022/04/28 02:42:23;;;;;;;21.60;8.82;;;;;;;-143.53;100.00;58366.03;2098136;28;20200;-69
2022/04/28 02:43:24;;;;;;;14.45;8.80;;;;;;;-143.53;100.00;58366.03;2091388;28;20208;-69
2022/04/28 02:44:26;;;;;;;9.68;8.60;;;;;;;-143.53;100.00;58366.03;2092446;28;20229;-69
2022/04/28 02:45:27;;;;;;;12.13;8.10;;;;;;;-143.53;100.00;58366.03;2091975;28;20203;-69
2022/04/28 02:46:31;;;;;;;15.32;8.32;;;;;;;-143.53;100.00;58366.03;2081820;28;20220;-69
2022/04/28 02:47:34;;;;;;;13.38;8.60;;;;;;;-143.53;100.00;58366.03;2092777;28;20215;-69
2022/04/28 02:48:37;;;;;;;19.40;8.45;;;;;;;-143.53;100.00;58366.03;2094018;28;20196;-69
2022/04/28 02:49:39;;;;;;;11.98;8.50;;;;;;;-143.53;100.00;58366.03;2095576;28;20192;-69
2022/04/28 02:50:40;;;;;;;12.98;9.30;;;;;;;-143.53;100.00;58366.03;2084275;28;20199;-69
2022/04/28 02:51:42;;;;;;;12.98;8.73;;;;;;;-143.53;100.00;58366.03;2099022;28;20212;-69
2022/04/28 02:52:44;;;;;;;11.30;8.13;;;;;;;-143.53;100.00;58366.03;2096575;28;20198;-68
2022/04/28 02:53:45;;;;;;;11.05;7.95;;;;;;;-143.53;100.00;58366.03;2092340;28;20196;-69
2022/04/28 02:54:47;;;;;;;16.90;8.65;;;;;;;-143.53;100.00;58366.03;2091282;28;20200;-69
2022/04/28 02:55:49;;;;;;;12.82;9.05;;;;;;;-143.53;100.00;58366.03;2092370;28;20795;-69
2022/04/28 02:56:50;;;;;;;16.42;9.63;;;;;;;-143.53;100.00;58366.03;2091787;28;20207;-69
2022/04/28 02:57:52;;;;;;;11.93;8.07;;;;;;;-143.53;100.00;58366.03;2085611;28;20211;-69
2022/04/28 02:58:58;;;;;;;14.82;9.50;;;;;;;-143.53;100.00;58366.03;2091320;28;20735;-68
2022/04/28 03:00:02;;;;;;;13.15;8.73;;;;;;;-143.53;100.00;58366.03;2091588;28;20199;-69
2022/04/28 03:01:04;;;;;;;17.42;8.80;;;;;;;-143.53;100.00;58366.03;2088170;28;20592;-69
2022/04/28 03:02:05;;;;;;;13.15;8.00;;;;;;;-143.53;100.00;58366.03;2098271;28;20195;-69
2022/04/28 03:03:08;;;;;;;15.77;8.95;;;;;;;-143.53;100.00;58366.03;2093508;28;20246;-69
2022/04/28 03:04:09;;;;;;;15.55;10.38;;;;;;;-143.53;100.00;58366.03;2090239;28;20228;-69
2022/04/28 03:05:11;;;;;;;13.38;9.32;;;;;;;-143.53;100.00;58366.03;2092230;28;20560;-69
2022/04/28 03:10:59;;;;;;;15.30;11.05;;;;;;;-143.53;100.00;58366.03;2091441;28;20196;-69
2022/04/28 03:11:53;;;;;;;16.38;9.82;;;;;;;-143.53;100.00;58366.03;2086838;28;20214;-69
2022/04/28 03:12:56;;;;;;;22.75;10.80;;;;;;;-143.53;100.00;58366.03;2091960;28;20286;-70
2022/04/28 03:13:59;;;;;;;14.52;10.18;;;;;;;-143.53;100.00;58366.03;2083161;28;20212;-69
2022/04/28 03:15:00;;;;;;;14.32;9.88;;;;;;;-143.53;100.00;58366.03;2084089;28;20610;-69
2022/04/28 03:16:02;;;;;;;16.65;11.10;;;;;;;-143.53;100.00;58366.03;2078473;28;20216;-70
2022/04/28 03:17:04;;;;;;;13.90;10.15;;;;;;;-143.53;100.00;58366.03;2091507;28;20204;-69
2022/04/28 03:18:05;;;;;;;12.90;9.68;;;;;;;-143.53;100.00;58366.03;2088419;28;20199;-70
2022/04/28 03:19:08;;;;;;;13.85;9.82;;;;;;;-143.53;100.00;58366.03;2085945;28;20200;-69
2022/04/28 03:20:10;;;;;;;14.20;9.68;;;;;;;-143.53;100.00;58366.03;2078783;28;20198;-70
2022/04/28 03:21:13;;;;;;;12.70;9.85;;;;;;;-143.53;100.00;58366.03;2073845;28;20225;-69
2022/04/28 03:22:14;;;;;;;16.88;9.57;;;;;;;-143.53;100.00;58366.03;2090094;28;20204;-68
2022/04/28 03:23:16;;;;;;;16.13;9.38;;;;;;;-143.53;100.00;58366.03;2085032;28;20196;-69
2022/04/28 03:24:17;;;;;;;13.57;9.30;;;;;;;-143.53;100.00;58366.03;2086370;28;20196;-69
2022/04/28 03:25:18;;;;;;;17.92;10.13;;;;;;;-143.53;100.00;58366.03;2083183;28;20200;-69
2022/04/28 03:26:21;;;;;;;14.55;9.38;;;;;;;-143.53;100.00;58366.03;2080216;28;20212;-69
2022/04/28 03:27:22;;;;;;;14.27;10.15;;;;;;;-143.53;100.00;58366.03;2086432;28;20840;-69
2022/04/28 03:28:24;;;;;;;15.57;10.18;;;;;;;-143.53;100.00;58366.03;2082367;28;20215;-69
2022/04/28 03:29:26;;;;;;;17.17;9.85;;;;;;;-143.53;100.00;58366.03;2085674;28;20196;-69
2022/04/28 03:30:27;;;;;;;15.23;9.30;;;;;;;-143.53;100.00;58366.03;2083616;28;20356;-69
2022/04/28 03:31:29;;;;;;;16.67;9.75;;;;;;;-143.53;100.00;58366.03;2073996;28;20212;-69
2022/04/28 03:32:30;;;;;;;11.70;8.05;;;;;;;-143.53;100.00;58366.03;2084977;28;20287;-69
2022/04/28 03:33:32;;;;;;;11.65;8.75;;;;;;;-143.53;100.00;58366.03;2086131;28;20654;-69
2022/04/28 03:34:34;;;;;;;17.35;9.68;;;;;;;-143.53;100.00;58366.03;2080716;28;20701;-69
2022/04/28 03:35:36;;;;;;;12.38;8.43;;;;;;;-143.53;100.00;58366.03;2075683;28;20283;-69
2022/04/28 03:36:53;;;;;;;20.92;8.70;;;;;;;-143.53;100.00;58366.03;2087619;28;20200;-69
2022/04/28 03:37:54;;;;;;;12.32;8.55;;;;;;;-143.53;100.00;58366.03;2080723;28;20192;-69
2022/04/28 03:38:56;;;;;;;12.30;8.57;;;;;;;-143.53;100.00;58366.03;2084709;28;20578;-69
2022/04/28 03:39:58;;;;;;;12.15;8.63;;;;;;;-143.53;100.00;58366.03;2079280;28;20301;-69
2022/04/28 03:40:59;;;;;;;15.55;8.55;;;;;;;-143.53;100.00;58366.03;2069552;28;20584;-69
2022/04/28 03:42:00;;;;;;;13.68;8.48;;;;;;;-143.53;100.00;58366.03;2085672;28;20227;-69
2022/04/28 03:43:03;;;;;;;11.57;8.15;;;;;;;-143.53;100.00;58366.03;2081445;28;20189;-69
2022/04/28 03:44:04;;;;;;;12.05;7.95;;;;;;;-143.53;100.00;58366.03;2081641;28;20267;-69
2022/04/28 03:45:06;;;;;;;9.25;7.05;;;;;;;-143.53;100.00;58366.03;2082500;28;20353;-69
2022/04/28 03:46:07;;;;;;;10.77;7.70;;;;;;;-143.53;100.00;58366.03;2079969;28;20319;-69
2022/04/28 03:47:13;;;;;;;15.13;8.88;;;;;;;-143.53;100.00;58366.03;2095803;28;20298;-70
2022/04/28 03:48:30;;;;;;;10.40;7.28;;;;;;;-143.53;100.00;58366.03;2086182;28;20651;-69
2022/04/28 03:49:32;;;;;;;10.60;7.20;;;;;;;-143.53;100.00;58366.03;2083781;28;20624;-69
2022/04/28 03:50:33;;;;;;;15.32;8.10;;;;;;;-143.53;100.00;58366.03;2074009;28;20196;-68
2022/04/28 03:51:35;;;;;;;11.70;8.13;;;;;;;-143.53;100.00;58366.03;2089008;28;20688;-69
2022/04/28 03:52:36;;;;;;;11.43;8.52;;;;;;;-143.53;100.00;58366.03;2088778;28;20200;-69
2022/04/28 03:53:38;;;;;;;11.63;7.40;;;;;;;-143.53;100.00;58366.03;2083610;28;20207;-69
2022/04/28 03:54:39;;;;;;;16.42;7.18;;;;;;;-143.53;100.00;58366.03;2084077;28;20741;-69
2022/04/28 03:55:41;;;;;;;10.00;7.50;;;;;;;-143.53;100.00;58366.03;2074590;28;20207;-69
2022/04/28 03:56:43;;;;;;;11.25;7.25;;;;;;;-143.53;100.00;58366.03;2089971;28;20192;-69
2022/04/28 03:57:44;;;;;;;8.70;7.07;;;;;;;-143.53;100.00;58366.03;2089990;28;20200;-69
2022/04/28 03:58:46;;;;;;;12.02;8.00;;;;;;;-143.53;100.00;58366.03;2084763;28;20197;-69
2022/04/28 03:59:48;;;;;;;11.70;7.60;;;;;;;-143.53;100.00;58366.03;2081442;28;20192;-69
2022/04/28 04:00:51;;;;;;;10.82;7.38;;;;;;;-143.53;100.00;58366.03;2075004;28;20290;-69
2022/04/28 04:01:52;;;;;;;16.20;6.80;;;;;;;-143.53;100.00;58366.03;2079853;28;20283;-69
2022/04/28 04:02:54;;;;;;;11.50;7.45;;;;;;;-143.53;100.00;58366.03;2082234;28;20349;-69
2022/04/28 04:03:56;;;;;;;14.50;7.47;;;;;;;-143.53;100.00;58366.03;2082814;28;20651;-69
2022/04/28 04:04:58;;;;;;;16.25;7.45;;;;;;;-143.53;100.00;58366.03;2085183;28;20193;-69
2022/04/28 04:05:59;;;;;;;9.07;7.15;;;;;;;-143.53;100.00;58366.03;2074130;28;20219;-69
2022/04/28 04:07:01;;;;;;;9.35;6.13;;;;;;;-143.53;100.00;58366.03;2083309;28;20250;-69
2022/04/28 04:08:03;;;;;;;10.10;7.40;;;;;;;-143.53;100.00;58366.03;2083545;28;20193;-69
2022/04/28 04:09:05;;;;;;;12.20;6.80;;;;;;;-143.53;100.00;58366.03;2082401;28;20197;-69
2022/04/28 04:10:07;;;;;;;12.25;7.75;;;;;;;-143.53;100.00;58366.03;2082077;28;20201;-69
2022/04/28 04:11:09;;;;;;;12.93;8.00;;;;;;;-143.53;100.00;58366.03;2078206;28;20227;-69
2022/04/28 04:12:11;;;;;;;11.88;7.50;;;;;;;-143.53;100.00;58366.03;2090324;28;20200;-68
2022/04/28 04:13:12;;;;;;;16.42;7.63;;;;;;;-143.53;100.00;58366.03;2086111;28;20208;-69
2022/04/28 04:14:14;;;;;;;10.00;7.07;;;;;;;-143.53;100.00;58366.03;2082756;28;20196;-69
2022/04/28 04:15:16;;;;;;;13.13;8.07;;;;;;;-143.53;100.00;58366.03;2084623;28;20561;-69
2022/04/28 04:16:17;;;;;;;9.30;6.70;;;;;;;-143.53;100.00;58366.03;2082128;28;20762;-69
2022/04/28 04:17:19;;;;;;;14.10;7.55;;;;;;;-143.53;100.00;58366.03;2092260;28;20203;-69
2022/04/28 04:18:21;;;;;;;12.07;8.25;;;;;;;-143.53;100.00;58366.03;2084587;28;20193;-69
2022/04/28 04:19:23;;;;;;;11.20;7.75;;;;;;;-143.53;100.00;58366.03;2081331;28;20204;-69
2022/04/28 04:20:26;;;;;;;11.75;7.65;;;;;;;-143.53;100.00;58366.03;2084408;28;20557;-69
2022/04/28 04:21:27;;;;;;;12.20;7.70;;;;;;;-143.53;100.00;58366.03;2068819;28;20225;-69
2022/04/28 04:22:29;;;;;;;11.25;7.43;;;;;;;-143.53;100.00;58366.03;2079208;28;20535;-69
2022/04/28 04:23:31;;;;;;;13.25;7.30;;;;;;;-143.53;100.00;58366.03;2082747;28;20716;-69
2022/04/28 04:24:33;;;;;;;10.43;6.88;;;;;;;-143.53;100.00;58366.03;2084373;28;20774;-69
2022/04/28 04:25:35;;;;;;;9.45;7.15;;;;;;;-143.53;100.00;58366.03;2074175;28;20778;-69
2022/04/28 04:26:37;;;;;;;11.93;7.43;;;;;;;-143.53;100.00;58366.03;2078997;28;20200;-69
2022/04/28 04:27:38;;;;;;;10.98;7.20;;;;;;;-143.53;100.00;58366.03;2078617;28;20201;-69
2022/04/28 04:28:40;;;;;;;14.65;8.63;;;;;;;-143.53;100.00;58366.03;2083063;28;20200;-69
2022/04/28 04:29:41;;;;;;;11.85;7.13;;;;;;;-143.53;100.00;58366.03;2083152;28;20200;-69
2022/04/28 04:32:18;;;;;;;9.48;7.15;;;;;;;-143.53;100.00;58366.03;2088518;28;20519;-69
2022/04/28 04:33:20;;;;;;;7.88;5.70;;;;;;;-143.53;100.00;58366.03;2084871;28;20212;-69
2022/04/28 04:34:22;;;;;;;10.88;7.63;;;;;;;-143.53;100.00;58366.03;2086210;28;20549;-69
2022/04/28 04:35:24;;;;;;;9.63;6.22;;;;;;;-143.53;100.00;58366.03;2080903;28;20201;-69
2022/04/28 04:36:26;;;;;;;10.27;6.72;;;;;;;-143.53;100.00;58366.03;2069203;28;20220;-69
2022/04/28 04:37:28;;;;;;;11.32;6.72;;;;;;;-143.53;100.00;58366.03;2083820;28;20660;-69
2022/04/28 04:38:30;;;;;;;16.00;7.88;;;;;;;-143.53;100.00;58366.03;2083481;28;20208;-69
2022/04/28 04:39:32;;;;;;;10.15;7.18;;;;;;;-143.53;100.00;58366.03;2084706;28;20199;-69
2022/04/28 04:40:33;;;;;;;10.80;6.30;;;;;;;-143.53;100.00;58366.03;2073233;28;20606;-68
2022/04/28 04:41:34;;;;;;;12.10;7.90;;;;;;;-143.53;100.00;58366.03;2085617;28;20596;-69
2022/04/28 04:42:36;;;;;;;12.68;7.90;;;;;;;-143.53;100.00;58366.03;2088411;28;20667;-69
2022/04/28 04:43:38;;;;;;;9.15;6.97;;;;;;;-143.53;100.00;58366.03;2082923;28;20591;-69
2022/04/28 04:44:40;;;;;;;14.00;7.45;;;;;;;-143.53;100.00;58366.03;2082710;28;20228;-69
2022/04/28 04:45:45;;;;;;;11.77;8.40;;;;;;;-143.53;100.00;58366.03;2080956;28;20276;-69
2022/04/28 04:46:46;;;;;;;11.23;7.78;;;;;;;-143.53;100.00;58366.03;2083331;28;20204;-69
2022/04/28 04:47:48;;;;;;;11.45;7.90;;;;;;;-143.53;100.00;58366.03;2081983;28;20228;-69
2022/04/28 04:48:50;;;;;;;15.45;8.65;;;;;;;-143.53;100.00;58366.03;2082335;28;20196;-69
2022/04/28 04:49:51;;;;;;;11.02;8.35;;;;;;;-143.53;100.00;58366.03;2082424;28;20201;-69
2022/04/28 04:50:54;;;;;;;14.05;8.00;;;;;;;-143.53;100.00;58366.03;2073480;28;20227;-69
2022/04/28 04:51:56;;;;;;;11.73;8.27;;;;;;;-143.53;100.00;58366.03;2078880;28;20201;-69
2022/04/28 04:52:57;;;;;;;12.30;7.72;;;;;;;-143.53;100.00;58366.03;2084371;28;20204;-69
2022/04/28 04:53:59;;;;;;;14.20;7.63;;;;;;;-143.53;100.00;58366.03;2083921;28;20627;-69
2022/04/28 04:55:01;;;;;;;12.95;7.38;;;;;;;-143.53;100.00;58366.03;2083631;28;20193;-69